Kalvesta, Kansas
Current Conditions -  °F | °C
As of 8:52 PM on Sunday 23 Nov 2014 (Local Time) from KDDC Reporting Station
Clear Clear  
Wind Chill: 28°   Ceiling: Unl
Heat Index: 37°   Visibility: 10mi
Dew Point: 15°   Wind: 15mph
Humidity: 41%   Direction: 320°NW
Pressure: 29.77"   Gusts: NA
Location:  37.8692°N, 100.332°W
Report Text: KDDC 240252Z AUTO 32013KT 10SM CLR 03/M09 A2977 RMK AO2 SLP085 T00281094 51027
Loading
Personal Weather Stations






























Interactive Weather Map New forecast layout! Learn more

10-Day Weather Forecast

Advertisements
Track Severe Weather on mobile